Time;durP1;ratioP1;P1;durP2;ratioP2;P2;SDS_P1;SDS_P2;PMS_P1;PMS_P2;Temp;Humidity;BMP_temperature;BMP_pressure;BME280_temperature;BME280_humidity;BME280_pressure;Samples;Min_cycle;Max_cycle;Signal;HPM_P1;HPM_P2
2022/11/13 00:02:00;;;;;;;6.47;4.53;;;8.70;99.90;;;;;;5048236;28;20029;-84
2022/11/13 00:04:45;;;;;;;5.30;3.80;;;8.70;99.90;;;;;;5039840;28;20439;-84
2022/11/13 00:07:30;;;;;;;6.00;3.70;;;8.70;99.90;;;;;;5040020;28;20391;-81
2022/11/13 00:10:15;;;;;;;5.65;3.90;;;8.70;99.90;;;;;;5047806;28;20502;-85
2022/11/13 00:13:00;;;;;;;5.97;3.35;;;8.80;99.90;;;;;;5048408;28;20411;-85
2022/11/13 00:15:56;;;;;;;5.35;3.55;;;8.80;99.90;;;;;;5048936;28;20029;-85
2022/11/13 00:18:41;;;;;;;5.22;3.40;;;8.80;99.90;;;;;;5034001;28;20040;-81
2022/11/13 00:21:26;;;;;;;4.35;3.25;;;8.80;99.90;;;;;;5037968;28;20035;-84
2022/11/13 00:24:12;;;;;;;3.92;2.65;;;8.90;99.90;;;;;;5032871;28;20033;-84
2022/11/13 00:26:56;;;;;;;3.72;2.92;;;8.90;99.90;;;;;;5036425;28;20632;-85
2022/11/13 00:29:41;;;;;;;5.70;2.50;;;8.90;99.90;;;;;;5046825;28;20037;-85
2022/11/13 00:32:26;;;;;;;3.85;2.47;;;8.90;99.90;;;;;;5036845;28;20024;-86
2022/11/13 00:35:10;;;;;;;6.35;2.80;;;8.90;99.90;;;;;;5035325;28;20037;-81
2022/11/13 00:37:55;;;;;;;3.67;2.45;;;9.00;99.90;;;;;;5047711;28;20041;-83
2022/11/13 00:40:40;;;;;;;3.67;2.50;;;9.00;99.90;;;;;;5041305;28;20040;-85
2022/11/13 00:43:25;;;;;;;2.85;1.85;;;8.90;99.90;;;;;;5045309;28;20484;-82
2022/11/13 00:46:11;;;;;;;3.53;2.20;;;8.90;99.90;;;;;;5044463;28;20040;-83
2022/11/13 00:48:55;;;;;;;4.35;1.85;;;8.90;99.90;;;;;;5041263;28;20032;-86
2022/11/13 00:51:40;;;;;;;2.75;2.00;;;8.90;99.90;;;;;;5045800;28;20900;-85
2022/11/13 00:54:25;;;;;;;2.72;1.80;;;8.90;99.90;;;;;;5047704;28;20384;-83
2022/11/13 00:57:10;;;;;;;3.25;2.17;;;8.80;99.90;;;;;;5052406;28;20036;-80
2022/11/13 00:59:54;;;;;;;3.50;2.80;;;8.90;99.90;;;;;;5045329;28;20049;-85
2022/11/13 01:02:39;;;;;;;3.40;2.28;;;8.80;99.90;;;;;;5042358;28;20036;-84
2022/11/13 01:05:26;;;;;;;3.38;2.20;;;8.80;99.90;;;;;;5048449;28;20049;-83
2022/11/13 01:08:12;;;;;;;2.67;1.83;;;8.80;99.90;;;;;;5046739;28;20056;-84
2022/11/13 01:10:57;;;;;;;2.90;1.48;;;8.80;99.90;;;;;;5046702;28;20033;-82
2022/11/13 01:13:44;;;;;;;3.30;2.22;;;8.70;99.90;;;;;;5046981;28;20040;-79
2022/11/13 01:16:29;;;;;;;2.95;1.90;;;8.70;99.90;;;;;;5044301;28;20494;-82
2022/11/13 01:19:14;;;;;;;16.95;12.80;;;8.60;99.90;;;;;;5048651;28;20021;-85
2022/11/13 01:21:59;;;;;;;20.70;14.88;;;8.60;99.90;;;;;;5050685;28;20036;-85
2022/11/13 01:24:44;;;;;;;16.15;11.43;;;8.60;99.90;;;;;;5052509;28;20041;-84
2022/11/13 01:27:29;;;;;;;25.58;17.08;;;8.50;99.90;;;;;;5033202;28;20372;-86
2022/11/13 01:30:14;;;;;;;15.45;10.63;;;8.50;99.90;;;;;;5042691;28;20040;-88
2022/11/13 01:32:59;;;;;;;11.13;7.22;;;8.50;99.90;;;;;;5035538;28;20045;-83
2022/11/13 01:35:44;;;;;;;19.50;11.80;;;8.50;99.90;;;;;;5034335;28;20029;-82
2022/11/13 01:38:29;;;;;;;10.35;6.78;;;8.50;99.90;;;;;;5030521;28;20044;-84
2022/11/13 01:41:26;;;;;;;11.55;5.40;;;8.50;99.90;;;;;;5030733;28;20025;-84
2022/11/13 01:44:14;;;;;;;7.10;4.40;;;8.60;99.90;;;;;;5048268;28;20044;-82
2022/11/13 01:46:58;;;;;;;9.00;4.60;;;8.50;99.90;;;;;;5050892;28;20124;-83
2022/11/13 01:49:44;;;;;;;8.10;4.43;;;8.50;99.90;;;;;;5032380;28;20029;-83
2022/11/13 01:52:35;;;;;;;18.50;9.77;;;8.50;99.90;;;;;;5050930;28;20040;-82
2022/11/13 01:55:20;;;;;;;11.77;6.18;;;8.40;99.90;;;;;;5055866;28;20036;-83
2022/11/13 01:58:09;;;;;;;8.82;5.40;;;8.40;99.90;;;;;;5036141;28;20037;-81
2022/11/13 02:00:54;;;;;;;12.68;7.63;;;8.40;99.90;;;;;;5042870;28;20049;-83
2022/11/13 02:03:39;;;;;;;9.32;5.80;;;8.30;99.90;;;;;;5029569;28;20033;-85
2022/11/13 02:06:27;;;;;;;7.20;4.07;;;8.40;99.90;;;;;;5037327;28;20063;-85
2022/11/13 02:09:14;;;;;;;5.55;3.03;;;8.40;99.90;;;;;;5044419;28;20032;-80
2022/11/13 02:11:59;;;;;;;3.90;2.72;;;8.40;99.90;;;;;;5043754;28;20036;-86
2022/11/13 02:14:52;;;;;;;5.47;2.17;;;8.40;99.90;;;;;;5044423;28;20044;-83
2022/11/13 02:17:46;;;;;;;3.97;2.88;;;8.40;99.90;;;;;;5044239;28;20037;-85
2022/11/13 02:20:33;;;;;;;2.63;1.77;;;8.30;99.90;;;;;;5040464;28;20040;-87
2022/11/13 02:23:29;;;;;;;3.50;2.38;;;8.40;99.90;;;;;;5040821;28;20047;-81
2022/11/13 02:26:18;;;;;;;3.00;1.90;;;8.40;99.90;;;;;;5042018;28;20392;-86
2022/11/13 02:29:03;;;;;;;4.68;1.90;;;8.40;99.90;;;;;;5038402;28;20041;-85
2022/11/13 02:31:48;;;;;;;3.15;1.70;;;8.40;99.90;;;;;;5029987;28;20046;-83
2022/11/13 02:34:33;;;;;;;5.30;2.10;;;8.40;99.90;;;;;;5031093;28;20041;-83
2022/11/13 02:37:17;;;;;;;2.95;1.48;;;8.40;99.90;;;;;;5035494;28;20507;-84
2022/11/13 02:40:03;;;;;;;4.32;2.20;;;8.40;99.90;;;;;;5040227;28;20041;-84
2022/11/13 02:42:48;;;;;;;3.63;2.58;;;8.40;99.90;;;;;;5047465;28;20048;-82
2022/11/13 02:45:33;;;;;;;2.00;1.40;;;8.40;99.90;;;;;;5048012;28;20045;-86
2022/11/13 02:48:18;;;;;;;3.92;1.67;;;8.40;99.90;;;;;;5045446;28;20036;-81
2022/11/13 02:51:03;;;;;;;3.33;1.98;;;8.40;99.90;;;;;;5051521;28;20036;-84
2022/11/13 02:53:48;;;;;;;3.55;2.05;;;8.50;99.90;;;;;;5040077;28;20040;-84
2022/11/13 02:56:33;;;;;;;3.08;1.70;;;8.50;99.90;;;;;;5032873;28;20044;-83
2022/11/13 02:59:18;;;;;;;3.03;1.85;;;8.50;99.90;;;;;;5025089;28;20400;-82
2022/11/13 03:02:02;;;;;;;3.08;1.95;;;8.50;99.90;;;;;;5040356;28;20036;-86
2022/11/13 03:04:47;;;;;;;4.05;1.63;;;8.50;99.90;;;;;;5047500;28;20124;-85
2022/11/13 03:07:32;;;;;;;2.58;1.85;;;8.50;99.90;;;;;;5038989;28;20060;-83
2022/11/13 03:10:18;;;;;;;3.05;1.63;;;8.50;99.90;;;;;;5037512;28;20033;-84
2022/11/13 03:13:02;;;;;;;2.58;1.70;;;8.50;99.90;;;;;;5032435;28;20033;-85
2022/11/13 03:15:47;;;;;;;2.90;2.00;;;8.60;99.90;;;;;;5043641;28;20048;-84
2022/11/13 03:18:32;;;;;;;2.35;1.70;;;8.50;99.90;;;;;;5028789;28;20045;-81
2022/11/13 03:21:16;;;;;;;3.45;2.47;;;8.50;99.90;;;;;;5044191;28;20500;-85
2022/11/13 03:24:01;;;;;;;3.55;2.20;;;8.50;99.90;;;;;;5032550;28;20032;-84
2022/11/13 03:26:46;;;;;;;3.28;2.28;;;8.50;99.90;;;;;;5040927;28;20031;-84
2022/11/13 03:29:31;;;;;;;4.45;3.08;;;8.50;99.90;;;;;;5027482;28;20045;-83
2022/11/13 03:32:17;;;;;;;4.25;2.92;;;8.50;99.90;;;;;;5041756;28;20035;-82
2022/11/13 03:35:02;;;;;;;3.58;2.88;;;8.50;99.90;;;;;;5043328;28;20024;-83
2022/11/13 03:37:47;;;;;;;7.38;3.20;;;8.60;99.90;;;;;;5043023;28;20365;-84
2022/11/13 03:40:32;;;;;;;3.60;3.13;;;8.60;99.90;;;;;;5033538;28;20372;-83
2022/11/13 03:43:17;;;;;;;5.45;3.88;;;8.60;99.90;;;;;;5037240;28;20032;-81
2022/11/13 03:46:02;;;;;;;3.92;3.00;;;8.60;99.90;;;;;;5042136;28;20041;-82
2022/11/13 03:48:46;;;;;;;4.80;3.22;;;8.60;99.90;;;;;;5042846;28;20539;-79
2022/11/13 03:51:31;;;;;;;5.85;3.80;;;8.60;99.90;;;;;;5046624;28;20550;-82
2022/11/13 03:54:16;;;;;;;2.75;2.22;;;8.60;99.90;;;;;;5046085;28;20052;-79
2022/11/13 03:57:01;;;;;;;4.45;3.40;;;8.50;99.90;;;;;;5035280;28;20064;-81
2022/11/13 03:59:46;;;;;;;5.78;4.22;;;8.50;99.90;;;;;;5042749;28;20048;-81
2022/11/13 04:02:30;;;;;;;4.30;2.92;;;8.50;99.90;;;;;;5030421;28;20032;-85
2022/11/13 04:05:15;;;;;;;5.53;3.30;;;8.40;99.90;;;;;;5032709;28;20423;-82
2022/11/13 04:08:00;;;;;;;4.93;3.47;;;8.30;99.90;;;;;;5048143;28;20045;-83
2022/11/13 04:10:45;;;;;;;4.70;2.92;;;8.30;99.90;;;;;;5025111;28;20045;-83
2022/11/13 04:13:30;;;;;;;4.35;2.70;;;8.20;99.90;;;;;;5043718;28;20037;-84
2022/11/13 04:16:15;;;;;;;4.00;2.70;;;8.20;99.90;;;;;;5048150;28;20048;-87
2022/11/13 04:19:00;;;;;;;6.68;4.38;;;8.10;99.90;;;;;;5046589;28;20182;-80
2022/11/13 04:21:45;;;;;;;4.13;3.00;;;8.10;99.90;;;;;;5031834;28;20048;-87
2022/11/13 04:24:30;;;;;;;6.35;4.13;;;8.10;99.90;;;;;;5034638;28;20036;-85
2022/11/13 04:27:15;;;;;;;6.07;4.45;;;8.00;99.90;;;;;;5055971;28;20036;-86
2022/11/13 04:30:01;;;;;;;5.47;4.38;;;8.00;99.90;;;;;;5047469;28;20044;-84
2022/11/13 04:32:45;;;;;;;6.80;4.82;;;8.00;99.90;;;;;;5049239;28;20044;-86
2022/11/13 04:35:30;;;;;;;7.75;5.97;;;7.90;99.90;;;;;;5058618;28;20037;-88
2022/11/13 04:38:15;;;;;;;6.07;5.22;;;7.90;99.90;;;;;;5054819;28;20032;-87
2022/11/13 04:44:04;;;;;;;4.97;4.13;;;7.90;99.90;;;;;;5044890;28;20037;-82
2022/11/13 04:46:49;;;;;;;4.15;2.90;;;7.90;99.90;;;;;;5029206;28;20033;-85
2022/11/13 04:49:34;;;;;;;3.83;3.28;;;7.80;99.90;;;;;;5046587;28;20044;-80
2022/11/13 04:52:23;;;;;;;4.97;3.22;;;7.80;99.90;;;;;;5037801;28;20040;-80
2022/11/13 04:55:12;;;;;;;4.85;3.50;;;7.70;99.90;;;;;;5045029;28;20044;-79
2022/11/13 04:57:57;;;;;;;4.25;3.00;;;7.60;99.90;;;;;;5044997;28;20025;-81
2022/11/13 05:00:42;;;;;;;3.75;2.95;;;7.50;99.90;;;;;;5041604;28;20029;-82
2022/11/13 05:03:27;;;;;;;3.63;2.80;;;7.50;99.90;;;;;;5027989;28;20036;-81
2022/11/13 05:06:11;;;;;;;5.85;4.25;;;7.40;99.90;;;;;;5034274;28;20044;-82
2022/11/13 05:08:56;;;;;;;4.53;3.30;;;7.30;99.90;;;;;;5040601;28;20044;-81
2022/11/13 05:11:41;;;;;;;4.30;3.42;;;7.20;99.90;;;;;;5029703;28;20040;-79
2022/11/13 05:14:27;;;;;;;3.05;2.38;;;7.20;99.90;;;;;;5043128;28;20044;-81
2022/11/13 05:17:12;;;;;;;5.65;3.30;;;7.20;99.90;;;;;;5042136;28;20045;-81
2022/11/13 05:20:10;;;;;;;4.65;3.88;;;7.20;99.90;;;;;;5038196;28;20048;-81
2022/11/13 05:22:56;;;;;;;4.88;4.00;;;7.20;99.90;;;;;;5026167;28;20400;-81
2022/11/13 05:25:41;;;;;;;5.53;4.05;;;7.20;99.90;;;;;;5045505;28;20037;-77
2022/11/13 05:28:26;;;;;;;4.50;3.63;;;7.20;99.90;;;;;;5043772;28;20032;-80
2022/11/13 05:31:15;;;;;;;6.10;3.95;;;7.20;99.90;;;;;;5047653;28;20515;-81
2022/11/13 05:34:03;;;;;;;5.53;4.10;;;7.20;99.90;;;;;;5041838;28;20037;-83
2022/11/13 05:36:48;;;;;;;6.32;4.60;;;7.20;99.90;;;;;;5045819;28;20488;-83
2022/11/13 05:39:33;;;;;;;4.72;4.05;;;7.20;99.90;;;;;;5026019;28;20046;-84
2022/11/13 05:42:17;;;;;;;5.90;3.47;;;7.20;99.90;;;;;;5041283;28;20411;-78
2022/11/13 05:45:02;;;;;;;4.55;3.67;;;7.10;99.90;;;;;;5043987;28;20491;-83
2022/11/13 05:47:47;;;;;;;4.57;3.40;;;7.10;99.90;;;;;;5031024;28;20375;-79
2022/11/13 05:50:32;;;;;;;4.05;2.92;;;7.00;99.90;;;;;;5024390;28;20041;-84
2022/11/13 05:53:16;;;;;;;4.57;3.10;;;7.00;99.90;;;;;;5044895;28;20076;-83
2022/11/13 05:56:04;;;;;;;3.90;2.58;;;6.90;99.90;;;;;;5046885;28;20033;-84
2022/11/13 05:58:50;;;;;;;6.85;2.97;;;7.00;99.90;;;;;;5028819;28;20049;-84
2022/11/13 06:01:38;;;;;;;3.35;2.60;;;6.90;99.90;;;;;;5044522;28;20491;-83
2022/11/13 06:04:23;;;;;;;3.45;2.55;;;6.90;99.90;;;;;;5042414;28;20029;-80
2022/11/13 06:07:08;;;;;;;4.57;2.92;;;6.90;99.90;;;;;;5044891;28;20037;-82
2022/11/13 06:09:52;;;;;;;4.30;3.20;;;6.90;99.90;;;;;;5040751;28;20028;-83
2022/11/13 06:12:37;;;;;;;3.53;2.78;;;7.00;99.90;;;;;;5045855;28;20060;-81
2022/11/13 06:15:22;;;;;;;3.85;2.15;;;7.00;99.90;;;;;;5049887;28;20112;-82
2022/11/13 06:18:06;;;;;;;3.40;2.40;;;7.00;99.90;;;;;;5044178;28;20466;-81
2022/11/13 06:20:51;;;;;;;3.33;2.72;;;7.00;99.90;;;;;;5042418;28;20041;-79
2022/11/13 06:23:37;;;;;;;3.17;2.63;;;7.00;99.90;;;;;;5044808;28;20033;-84
2022/11/13 06:26:28;;;;;;;3.10;2.40;;;7.00;99.90;;;;;;5034576;28;20033;-82
2022/11/13 06:29:13;;;;;;;3.88;2.63;;;7.00;99.90;;;;;;5040795;28;20032;-83
2022/11/13 06:31:58;;;;;;;2.30;1.52;;;7.00;99.90;;;;;;5044342;28;20373;-84
2022/11/13 06:34:42;;;;;;;3.75;2.38;;;7.00;99.90;;;;;;5042761;28;20399;-84
2022/11/13 06:37:27;;;;;;;2.55;1.95;;;6.90;99.90;;;;;;5041371;28;20028;-84
2022/11/13 06:40:13;;;;;;;3.97;3.05;;;6.90;99.90;;;;;;5025725;28;20048;-84
2022/11/13 06:42:57;;;;;;;3.42;1.85;;;6.80;99.90;;;;;;5041997;28;20025;-84
2022/11/13 06:45:42;;;;;;;2.38;1.65;;;6.80;99.90;;;;;;5044291;28;20029;-85
2022/11/13 06:48:27;;;;;;;3.13;1.75;;;6.80;99.90;;;;;;5045768;28;20028;-77
2022/11/13 06:51:15;;;;;;;2.45;2.00;;;6.80;99.90;;;;;;5047046;28;20041;-84
2022/11/13 06:54:00;;;;;;;4.55;2.10;;;6.80;99.90;;;;;;5048197;28;20143;-84
2022/11/13 06:56:45;;;;;;;2.50;1.85;;;6.80;99.90;;;;;;5049472;28;20032;-83
2022/11/13 06:59:30;;;;;;;2.47;1.92;;;6.80;99.90;;;;;;5036846;28;20053;-83
2022/11/13 07:02:14;;;;;;;3.05;1.88;;;6.80;99.90;;;;;;5051827;28;20040;-83
2022/11/13 07:04:59;;;;;;;3.40;2.50;;;6.80;99.90;;;;;;5045750;28;20041;-85
2022/11/13 07:07:44;;;;;;;3.05;2.03;;;6.80;99.90;;;;;;5046330;28;20036;-84
2022/11/13 07:10:29;;;;;;;3.10;2.55;;;6.80;99.90;;;;;;5039537;28;20045;-80
2022/11/13 07:13:14;;;;;;;2.83;2.10;;;6.80;99.90;;;;;;5045424;28;20043;-84
2022/11/13 07:16:03;;;;;;;3.33;2.22;;;6.80;99.90;;;;;;5051214;28;20116;-83
2022/11/13 07:18:50;;;;;;;3.08;2.67;;;6.80;99.90;;;;;;5047234;28;20037;-82
2022/11/13 07:21:34;;;;;;;3.60;2.95;;;6.80;99.90;;;;;;5046437;28;20032;-84
2022/11/13 07:24:20;;;;;;;2.78;2.17;;;6.80;99.90;;;;;;5039202;28;20032;-83
2022/11/13 07:27:04;;;;;;;3.22;2.17;;;6.80;99.90;;;;;;5057210;28;20060;-81
2022/11/13 07:29:49;;;;;;;3.78;2.53;;;6.90;99.90;;;;;;5038441;28;20041;-84
2022/11/13 07:32:34;;;;;;;4.00;2.40;;;7.00;99.90;;;;;;5047484;28;20041;-83
2022/11/13 07:35:19;;;;;;;4.20;2.20;;;7.00;99.90;;;;;;5046323;28;20048;-85
2022/11/13 07:38:04;;;;;;;4.35;3.10;;;7.10;99.90;;;;;;5044516;28;20045;-82
2022/11/13 07:40:49;;;;;;;5.85;3.47;;;7.20;99.90;;;;;;5026866;28;20036;-83
2022/11/13 07:43:34;;;;;;;4.25;3.25;;;7.20;99.90;;;;;;5030296;28;20056;-85
2022/11/13 07:46:19;;;;;;;3.25;2.65;;;7.40;99.90;;;;;;5042193;28;20043;-80
2022/11/13 07:49:04;;;;;;;3.53;2.85;;;7.40;99.90;;;;;;5033607;28;20393;-80
2022/11/13 07:51:48;;;;;;;4.35;2.92;;;7.50;99.90;;;;;;5051667;28;20029;-81
2022/11/13 07:54:34;;;;;;;3.15;2.67;;;7.50;99.90;;;;;;5033009;28;20059;-82
2022/11/13 07:57:19;;;;;;;4.47;3.67;;;7.60;99.90;;;;;;5046119;28;20467;-83
2022/11/13 08:00:05;;;;;;;4.38;2.92;;;7.70;99.90;;;;;;5042189;28;20056;-78
2022/11/13 08:02:50;;;;;;;4.47;3.10;;;7.70;99.90;;;;;;5062032;28;20501;-79
2022/11/13 08:05:35;;;;;;;5.78;3.92;;;7.80;99.90;;;;;;5048898;28;20033;-78
2022/11/13 08:08:20;;;;;;;4.32;3.20;;;7.80;99.90;;;;;;5037615;28;20047;-82
2022/11/13 08:11:07;;;;;;;3.40;2.67;;;7.90;99.90;;;;;;5039967;28;20507;-85
2022/11/13 08:13:52;;;;;;;3.42;2.75;;;8.00;99.90;;;;;;5045381;28;20044;-83
2022/11/13 08:16:37;;;;;;;4.95;2.72;;;8.00;99.90;;;;;;5052408;28;20037;-85
2022/11/13 08:19:22;;;;;;;3.95;3.10;;;8.10;99.90;;;;;;5055289;28;20036;-85
2022/11/13 08:22:07;;;;;;;5.43;4.85;;;8.10;99.90;;;;;;5051416;28;20407;-83
2022/11/13 08:24:52;;;;;;;7.53;6.07;;;8.20;99.90;;;;;;5033786;28;20426;-82
2022/11/13 08:27:37;;;;;;;7.18;5.35;;;8.30;99.90;;;;;;5054108;28;20044;-82
2022/11/13 08:30:23;;;;;;;6.10;4.45;;;8.40;99.90;;;;;;5047168;28;20048;-86
2022/11/13 08:33:07;;;;;;;6.18;4.82;;;8.50;99.90;;;;;;5035592;28;20044;-83
2022/11/13 08:35:57;;;;;;;6.00;3.83;;;8.60;99.90;;;;;;5052150;28;20045;-80
2022/11/13 08:38:42;;;;;;;6.28;5.05;;;8.70;99.90;;;;;;5050353;28;20412;-83
2022/11/13 08:41:27;;;;;;;6.45;5.22;;;8.80;99.90;;;;;;5042369;28;20029;-82
2022/11/13 08:44:13;;;;;;;7.55;6.03;;;8.90;99.90;;;;;;5038404;28;20033;-81
2022/11/13 08:46:58;;;;;;;7.30;5.68;;;9.00;99.90;;;;;;5041243;28;20045;-81
2022/11/13 08:49:43;;;;;;;4.38;3.70;;;9.10;99.90;;;;;;5033345;28;20108;-86
2022/11/13 08:52:27;;;;;;;8.52;4.78;;;9.20;99.90;;;;;;5052407;28;20428;-81
2022/11/13 08:55:12;;;;;;;5.97;4.70;;;9.30;99.90;;;;;;5048878;28;20484;-81
2022/11/13 08:58:01;;;;;;;10.68;7.05;;;9.40;99.90;;;;;;5055611;28;20044;-83
2022/11/13 09:00:46;;;;;;;11.82;7.57;;;9.50;99.90;;;;;;5032430;28;20040;-84
2022/11/13 09:03:31;;;;;;;7.20;5.22;;;9.60;99.90;;;;;;5051483;28;20035;-84
2022/11/13 09:06:16;;;;;;;6.63;4.45;;;9.80;99.90;;;;;;5053310;28;20036;-83
2022/11/13 09:09:02;;;;;;;6.25;4.90;;;9.80;99.90;;;;;;5049016;28;20037;-84
2022/11/13 09:11:47;;;;;;;7.68;5.13;;;9.90;99.90;;;;;;5048637;28;20041;-83
2022/11/13 09:14:32;;;;;;;7.10;4.70;;;10.00;99.90;;;;;;5047502;28;20048;-84
2022/11/13 09:17:17;;;;;;;6.55;5.18;;;10.10;99.90;;;;;;5050645;28;20045;-82
2022/11/13 09:20:05;;;;;;;5.68;4.53;;;10.20;99.90;;;;;;5049216;28;20472;-79
2022/11/13 09:23:02;;;;;;;4.90;3.95;;;10.30;99.90;;;;;;5047813;28;20047;-82
2022/11/13 09:25:47;;;;;;;6.80;4.38;;;10.30;99.90;;;;;;5039656;28;20052;-78
2022/11/13 09:28:32;;;;;;;5.65;4.63;;;10.40;99.90;;;;;;5049270;28;20432;-80
2022/11/13 09:31:17;;;;;;;5.60;4.55;;;10.50;99.90;;;;;;5048633;28;20025;-81
2022/11/13 09:34:02;;;;;;;8.30;5.15;;;10.60;99.90;;;;;;5045402;28;20049;-82
2022/11/13 09:36:46;;;;;;;8.77;5.07;;;10.60;99.90;;;;;;5046857;28;20391;-79
2022/11/13 09:39:32;;;;;;;5.15;3.60;;;10.70;99.90;;;;;;5036843;28;20029;-82
2022/11/13 09:42:20;;;;;;;4.40;3.75;;;10.90;99.90;;;;;;5047594;28;20035;-80
2022/11/13 09:45:10;;;;;;;7.18;4.95;;;11.10;99.90;;;;;;5047019;28;20056;-81
2022/11/13 09:48:21;;;;;;;4.47;3.67;;;11.50;99.90;;;;;;5046431;28;20033;-80
2022/11/13 09:51:17;;;;;;;8.45;5.68;;;11.70;99.90;;;;;;5042801;28;20029;-81
2022/11/13 09:54:05;;;;;;;6.82;4.45;;;12.10;99.90;;;;;;5043880;28;20044;-81
2022/11/13 09:56:50;;;;;;;6.45;4.72;;;12.40;99.90;;;;;;5051770;28;20044;-77
2022/11/13 10:00:09;;;;;;;4.53;3.88;;;12.60;99.90;;;;;;5047755;28;20523;-80
2022/11/13 10:03:15;;;;;;;3.78;3.20;;;13.00;99.90;;;;;;5046032;28;20468;-81
2022/11/13 10:06:21;;;;;;;5.40;3.83;;;13.20;99.90;;;;;;5040340;28;20424;-78
2022/11/13 10:09:41;;;;;;;5.95;3.67;;;13.60;99.90;;;;;;5043662;28;20486;-80
2022/11/13 10:12:30;;;;;;;5.63;3.80;;;14.00;99.90;;;;;;5027804;28;20357;-77
2022/11/13 10:15:16;;;;;;;4.03;2.70;;;14.20;99.90;;;;;;5047616;28;20056;-80
2022/11/13 10:18:11;;;;;;;5.82;3.88;;;14.50;99.90;;;;;;5038049;28;20040;-81
2022/11/13 10:21:21;;;;;;;5.43;2.85;;;14.90;99.90;;;;;;5048258;28;20047;-80
2022/11/13 10:24:21;;;;;;;5.43;3.78;;;15.40;99.90;;;;;;5048415;28;20032;-80
2022/11/13 10:27:13;;;;;;;4.60;2.95;;;15.90;99.90;;;;;;5050660;28;20029;-81
2022/11/13 10:29:58;;;;;;;25.15;19.88;;;16.30;99.90;;;;;;5046444;28;20056;-81
2022/11/13 10:32:44;;;;;;;13.65;10.98;;;16.50;99.90;;;;;;5048156;28;20037;-83
2022/11/13 10:35:44;;;;;;;7.35;5.30;;;16.30;99.90;;;;;;5030510;28;20507;-83
2022/11/13 10:38:46;;;;;;;4.85;3.30;;;15.90;99.90;;;;;;5046225;28;20043;-82
2022/11/13 10:41:32;;;;;;;5.93;4.30;;;15.60;99.90;;;;;;5047039;28;20033;-79
2022/11/13 10:44:34;;;;;;;6.13;3.53;;;15.20;99.90;;;;;;5046078;28;20424;-80
2022/11/13 10:47:22;;;;;;;4.57;3.33;;;14.90;99.90;;;;;;5051975;28;20411;-78
2022/11/13 10:50:17;;;;;;;4.43;2.97;;;14.50;99.90;;;;;;5045439;28;20033;-79
2022/11/13 10:53:13;;;;;;;4.22;2.30;;;14.30;99.90;;;;;;5031860;28;20037;-81
2022/11/13 10:55:59;;;;;;;3.22;1.90;;;14.00;99.90;;;;;;5049510;28;20442;-81
2022/11/13 10:58:44;;;;;;;1.98;1.27;;;13.90;99.90;;;;;;5047071;28;20068;-79
2022/11/13 11:01:29;;;;;;;2.83;1.80;;;13.70;99.90;;;;;;5035120;28;20511;-80
2022/11/13 11:04:28;;;;;;;2.60;1.80;;;13.70;99.90;;;;;;5032610;28;20052;-79
2022/11/13 11:07:22;;;;;;;4.15;1.73;;;13.60;99.90;;;;;;5049668;28;20029;-78
2022/11/13 11:10:31;;;;;;;2.88;1.75;;;13.50;99.90;;;;;;5048080;28;20032;-80
2022/11/13 11:13:23;;;;;;;3.85;2.17;;;13.40;99.90;;;;;;5046433;28;20037;-82
2022/11/13 11:16:13;;;;;;;2.58;1.63;;;13.40;99.90;;;;;;5048115;28;20420;-80
2022/11/13 11:19:03;;;;;;;4.47;3.00;;;13.30;99.90;;;;;;5054271;28;20475;-81
2022/11/13 11:21:53;;;;;;;3.95;2.08;;;13.30;99.90;;;;;;5043919;28;20412;-85
2022/11/13 11:24:44;;;;;;;2.33;1.70;;;13.30;99.90;;;;;;5047416;28;20041;-83
2022/11/13 11:27:36;;;;;;;4.97;3.17;;;13.30;99.90;;;;;;5036809;28;20490;-84
2022/11/13 11:30:25;;;;;;;3.90;2.28;;;13.20;99.90;;;;;;5031331;28;20033;-83
2022/11/13 11:33:27;;;;;;;2.92;2.22;;;13.20;99.90;;;;;;5062178;28;20041;-81
2022/11/13 11:36:31;;;;;;;2.95;2.28;;;13.20;99.90;;;;;;5046722;28;20068;-83
2022/11/13 11:39:18;;;;;;;4.55;2.70;;;13.20;99.90;;;;;;5066184;28;20059;-84
2022/11/13 11:42:19;;;;;;;4.72;2.95;;;13.20;99.90;;;;;;5052991;28;20040;-84
2022/11/13 11:45:28;;;;;;;3.50;2.58;;;13.20;99.90;;;;;;5049751;28;20037;-83
2022/11/13 11:48:23;;;;;;;4.00;2.10;;;13.20;99.90;;;;;;5052007;28;20032;-84
2022/11/13 11:51:24;;;;;;;3.35;1.50;;;13.20;99.90;;;;;;5050724;28;20028;-83
2022/11/13 11:54:30;;;;;;;2.78;1.95;;;13.20;99.90;;;;;;5047378;28;20076;-86
2022/11/13 11:57:54;;;;;;;6.10;4.60;;;13.30;99.90;;;;;;5043347;28;20514;-86
2022/11/13 12:00:49;;;;;;;4.15;2.83;;;13.30;99.90;;;;;;5037947;28;20063;-85
2022/11/13 12:03:48;;;;;;;2.28;1.50;;;13.20;99.90;;;;;;5049727;28;20025;-84
2022/11/13 12:07:09;;;;;;;2.70;1.92;;;13.20;99.90;;;;;;5045999;28;20053;-85
2022/11/13 12:10:02;;;;;;;2.72;1.67;;;13.20;99.90;;;;;;5036369;28;20053;-83
2022/11/13 12:12:56;;;;;;;3.30;1.70;;;13.20;99.90;;;;;;5048942;28;20080;-85
2022/11/13 12:16:05;;;;;;;3.35;2.28;;;13.30;99.90;;;;;;5048553;28;20039;-83
2022/11/13 12:19:04;;;;;;;3.20;2.33;;;13.30;99.90;;;;;;5052629;28;20789;-86
2022/11/13 12:21:54;;;;;;;2.70;2.08;;;13.30;99.90;;;;;;5039066;28;20033;-81
2022/11/13 12:24:42;;;;;;;3.20;2.05;;;13.40;99.90;;;;;;5046262;28;20503;-83
2022/11/13 12:27:41;;;;;;;3.35;2.10;;;13.40;99.90;;;;;;5052061;28;20480;-82
2022/11/13 12:31:00;;;;;;;2.00;1.10;;;13.40;99.90;;;;;;5033204;28;20115;-81
2022/11/13 12:34:19;;;;;;;3.67;1.95;;;13.50;99.90;;;;;;5044324;28;20041;-84
2022/11/13 12:37:11;;;;;;;2.80;1.80;;;13.60;99.90;;;;;;5030018;28;20044;-81
2022/11/13 12:40:02;;;;;;;2.78;1.60;;;13.60;99.90;;;;;;5028653;28;20056;-81
2022/11/13 12:42:58;;;;;;;3.58;3.05;;;13.60;99.90;;;;;;5025214;28;20048;-83
2022/11/13 12:45:52;;;;;;;5.40;3.65;;;13.70;99.90;;;;;;5026764;28;20104;-83
2022/11/13 12:48:42;;;;;;;3.25;2.45;;;13.70;99.90;;;;;;5024503;28;20041;-79
2022/11/13 12:51:38;;;;;;;2.33;1.45;;;13.70;99.90;;;;;;5048130;28;21215;-86
2022/11/13 12:54:28;;;;;;;1.85;1.25;;;13.70;99.90;;;;;;5048059;28;20392;-85
2022/11/13 12:57:13;;;;;;;1.50;0.85;;;13.70;99.90;;;;;;5046999;28;20025;-85
2022/11/13 13:00:10;;;;;;;2.95;1.27;;;13.70;99.90;;;;;;5031795;28;20484;-86
2022/11/13 13:03:07;;;;;;;2.78;1.02;;;13.70;99.90;;;;;;5043813;28;20033;-84
2022/11/13 13:06:13;;;;;;;1.80;1.13;;;13.80;99.90;;;;;;5045593;28;20032;-82
2022/11/13 13:09:26;;;;;;;2.97;1.10;;;13.80;99.90;;;;;;5041171;28;20043;-83
2022/11/13 13:12:32;;;;;;;1.73;0.95;;;13.80;99.90;;;;;;5026686;28;20048;-83
2022/11/13 13:15:33;;;;;;;1.80;1.10;;;13.90;99.90;;;;;;5040592;28;20043;-83
2022/11/13 13:18:18;;;;;;;2.10;0.90;;;13.90;99.90;;;;;;5043520;28;20041;-84
2022/11/13 13:21:10;;;;;;;1.70;0.90;;;13.80;99.90;;;;;;5045816;28;20490;-81
2022/11/13 13:24:06;;;;;;;2.08;1.00;;;13.80;99.90;;;;;;5050950;28;20506;-83
2022/11/13 13:26:52;;;;;;;2.35;1.10;;;13.80;99.90;;;;;;5048992;28;20040;-82
2022/11/13 13:29:39;;;;;;;1.60;0.90;;;13.80;99.90;;;;;;5052513;28;20087;-83
2022/11/13 13:32:45;;;;;;;1.48;0.75;;;13.80;99.90;;;;;;5035745;28;20518;-82
2022/11/13 13:35:56;;;;;;;1.65;0.70;;;13.80;99.90;;;;;;5049887;28;20029;-84
2022/11/13 13:38:52;;;;;;;1.40;0.70;;;13.70;99.90;;;;;;5053137;28;20040;-84
2022/11/13 13:41:50;;;;;;;1.67;0.90;;;13.70;99.90;;;;;;5037081;28;20032;-81
2022/11/13 13:44:54;;;;;;;4.18;2.20;;;13.70;99.90;;;;;;5051246;28;20044;-84
2022/11/13 13:47:45;;;;;;;5.07;2.97;;;13.70;99.90;;;;;;5047267;28;20052;-85
2022/11/13 13:50:34;;;;;;;3.65;2.53;;;13.70;99.90;;;;;;5051827;28;20025;-85
2022/11/13 13:53:29;;;;;;;6.57;3.60;;;13.70;99.90;;;;;;5047103;28;20392;-84
2022/11/13 13:56:15;;;;;;;5.65;2.00;;;13.70;99.90;;;;;;5049082;28;20043;-84
2022/11/13 13:59:01;;;;;;;2.80;1.40;;;13.70;99.90;;;;;;5035428;28;20053;-84
2022/11/13 14:01:58;;;;;;;1.83;0.85;;;13.70;99.90;;;;;;5035767;28;20028;-84
2022/11/13 14:04:45;;;;;;;3.35;1.73;;;13.70;99.90;;;;;;5056140;28;20398;-83
2022/11/13 14:07:32;;;;;;;3.13;1.58;;;13.80;99.90;;;;;;5042357;28;20044;-85
2022/11/13 14:10:22;;;;;;;3.08;0.93;;;13.80;99.90;;;;;;5049023;28;20025;-83
2022/11/13 14:13:14;;;;;;;1.90;0.75;;;13.90;99.90;;;;;;5049480;28;20387;-84
2022/11/13 14:16:04;;;;;;;2.88;1.08;;;14.00;99.90;;;;;;5047742;28;20044;-87
2022/11/13 14:18:48;;;;;;;1.10;0.60;;;14.00;99.90;;;;;;5042854;28;20676;-85
2022/11/13 14:21:33;;;;;;;1.20;0.60;;;14.00;99.90;;;;;;5036555;28;20379;-86
2022/11/13 14:24:43;;;;;;;1.92;0.60;;;14.00;99.90;;;;;;5050427;28;20040;-85
2022/11/13 14:27:30;;;;;;;1.17;0.60;;;14.00;99.90;;;;;;5045564;28;20048;-85
2022/11/13 14:30:21;;;;;;;1.30;0.57;;;14.00;99.90;;;;;;5042514;28;20357;-85
2022/11/13 14:33:16;;;;;;;1.40;0.60;;;13.90;99.90;;;;;;5039428;28;20037;-81
2022/11/13 14:36:01;;;;;;;1.38;0.40;;;13.90;99.90;;;;;;5042960;28;20413;-83
2022/11/13 14:38:48;;;;;;;2.25;0.60;;;13.90;99.90;;;;;;5032637;28;20044;-83
2022/11/13 14:41:38;;;;;;;1.80;0.50;;;13.80;99.90;;;;;;5038684;28;20037;-82
2022/11/13 14:44:29;;;;;;;1.50;0.45;;;13.80;99.90;;;;;;5024162;28;20025;-83
2022/11/13 14:47:28;;;;;;;1.10;0.40;;;13.80;99.90;;;;;;5043097;28;20020;-86
2022/11/13 14:50:13;;;;;;;1.15;0.43;;;13.70;99.90;;;;;;5039679;28;20503;-85